sensor_id;sensor_type;location;lat;lon;timestamp;temperature;humidity
36186;DHT22;22228;53.222;7.446;2022-10-16T00:00:19;11.90;99.90
36186;DHT22;22228;53.222;7.446;2022-10-16T00:03:09;12.00;99.90
36186;DHT22;22228;53.222;7.446;2022-10-16T00:05:40;12.00;99.90
36186;DHT22;22228;53.222;7.446;2022-10-16T00:08:28;12.00;99.90
36186;DHT22;22228;53.222;7.446;2022-10-16T00:10:49;12.00;99.90
36186;DHT22;22228;53.222;7.446;2022-10-16T00:13:17;12.00;99.90
36186;DHT22;22228;53.222;7.446;2022-10-16T00:15:44;12.00;99.90
36186;DHT22;22228;53.222;7.446;2022-10-16T00:18:34;12.00;99.90
36186;DHT22;22228;53.222;7.446;2022-10-16T00:21:02;11.90;99.90
36186;DHT22;22228;53.222;7.446;2022-10-16T00:23:23;11.80;99.90
36186;DHT22;22228;53.222;7.446;2022-10-16T00:25:44;11.80;99.90
36186;DHT22;22228;53.222;7.446;2022-10-16T00:31:24;11.60;99.90
36186;DHT22;22228;53.222;7.446;2022-10-16T00:33:52;11.50;99.90
36186;DHT22;22228;53.222;7.446;2022-10-16T00:36:21;11.50;99.90
36186;DHT22;22228;53.222;7.446;2022-10-16T00:39:09;11.40;99.90
36186;DHT22;22228;53.222;7.446;2022-10-16T00:42:00;11.50;99.90
36186;DHT22;22228;53.222;7.446;2022-10-16T00:44:48;11.40;99.90
36186;DHT22;22228;53.222;7.446;2022-10-16T00:47:25;11.30;99.90
36186;DHT22;22228;53.222;7.446;2022-10-16T00:50:18;11.20;99.90
36186;DHT22;22228;53.222;7.446;2022-10-16T00:52:44;11.20;99.90
36186;DHT22;22228;53.222;7.446;2022-10-16T00:55:08;11.20;99.90
36186;DHT22;22228;53.222;7.446;2022-10-16T00:57:33;11.20;99.90
36186;DHT22;22228;53.222;7.446;2022-10-16T00:59:54;11.20;99.90
36186;DHT22;22228;53.222;7.446;2022-10-16T01:02:39;11.20;99.90
36186;DHT22;22228;53.222;7.446;2022-10-16T01:05:02;11.20;99.90
36186;DHT22;22228;53.222;7.446;2022-10-16T01:07:34;11.10;99.90
36186;DHT22;22228;53.222;7.446;2022-10-16T01:10:07;11.00;99.90
36186;DHT22;22228;53.222;7.446;2022-10-16T01:12:57;11.00;99.90
36186;DHT22;22228;53.222;7.446;2022-10-16T01:15:48;10.90;99.90
36186;DHT22;22228;53.222;7.446;2022-10-16T01:18:17;10.90;99.90
36186;DHT22;22228;53.222;7.446;2022-10-16T01:20:47;10.90;99.90
36186;DHT22;22228;53.222;7.446;2022-10-16T01:23:26;10.80;99.90
36186;DHT22;22228;53.222;7.446;2022-10-16T01:26:16;10.70;99.90
36186;DHT22;22228;53.222;7.446;2022-10-16T01:28:48;10.70;99.90
36186;DHT22;22228;53.222;7.446;2022-10-16T01:31:38;10.70;99.90
36186;DHT22;22228;53.222;7.446;2022-10-16T01:34:32;10.70;99.90
36186;DHT22;22228;53.222;7.446;2022-10-16T01:36:58;10.70;99.90
36186;DHT22;22228;53.222;7.446;2022-10-16T01:39:29;10.70;99.90
36186;DHT22;22228;53.222;7.446;2022-10-16T01:41:57;10.60;99.90
36186;DHT22;22228;53.222;7.446;2022-10-16T01:44:25;10.70;99.90
36186;DHT22;22228;53.222;7.446;2022-10-16T01:46:49;10.70;99.90
36186;DHT22;22228;53.222;7.446;2022-10-16T01:49:12;10.70;99.90
36186;DHT22;22228;53.222;7.446;2022-10-16T01:51:35;10.70;99.90
36186;DHT22;22228;53.222;7.446;2022-10-16T01:53:59;10.80;99.90
36186;DHT22;22228;53.222;7.446;2022-10-16T01:56:45;10.80;99.90
36186;DHT22;22228;53.222;7.446;2022-10-16T01:59:35;10.80;99.90
36186;DHT22;22228;53.222;7.446;2022-10-16T02:02:39;10.80;99.90
36186;DHT22;22228;53.222;7.446;2022-10-16T02:05:04;10.80;99.90
36186;DHT22;22228;53.222;7.446;2022-10-16T02:07:30;10.80;99.90
36186;DHT22;22228;53.222;7.446;2022-10-16T02:09:52;10.80;99.90
36186;DHT22;22228;53.222;7.446;2022-10-16T02:12:18;10.80;99.90
36186;DHT22;22228;53.222;7.446;2022-10-16T02:14:45;10.90;99.90
36186;DHT22;22228;53.222;7.446;2022-10-16T02:17:11;10.90;99.90
36186;DHT22;22228;53.222;7.446;2022-10-16T02:19:39;10.90;99.90
36186;DHT22;22228;53.222;7.446;2022-10-16T02:22:03;10.90;99.90
36186;DHT22;22228;53.222;7.446;2022-10-16T02:24:30;10.90;99.90
36186;DHT22;22228;53.222;7.446;2022-10-16T02:27:23;11.00;99.90
36186;DHT22;22228;53.222;7.446;2022-10-16T02:29:49;11.00;99.90
36186;DHT22;22228;53.222;7.446;2022-10-16T02:32:13;11.10;99.90
36186;DHT22;22228;53.222;7.446;2022-10-16T02:35:01;11.10;99.90
36186;DHT22;22228;53.222;7.446;2022-10-16T02:37:22;11.20;99.90
36186;DHT22;22228;53.222;7.446;2022-10-16T02:40:10;11.30;99.90
36186;DHT22;22228;53.222;7.446;2022-10-16T02:43:04;11.30;99.90
36186;DHT22;22228;53.222;7.446;2022-10-16T02:45:52;11.30;99.90
36186;DHT22;22228;53.222;7.446;2022-10-16T02:48:19;11.40;99.90
36186;DHT22;22228;53.222;7.446;2022-10-16T02:50:40;11.50;99.90
36186;DHT22;22228;53.222;7.446;2022-10-16T02:53:02;11.50;99.90
36186;DHT22;22228;53.222;7.446;2022-10-16T02:55:30;11.60;99.90
36186;DHT22;22228;53.222;7.446;2022-10-16T02:57:52;11.60;99.90
36186;DHT22;22228;53.222;7.446;2022-10-16T03:00:20;11.60;99.90
36186;DHT22;22228;53.222;7.446;2022-10-16T03:02:42;11.70;99.90
36186;DHT22;22228;53.222;7.446;2022-10-16T03:05:03;11.80;99.90
36186;DHT22;22228;53.222;7.446;2022-10-16T03:07:26;11.80;99.90
36186;DHT22;22228;53.222;7.446;2022-10-16T03:09:47;11.90;99.90
36186;DHT22;22228;53.222;7.446;2022-10-16T03:12:14;12.00;99.90
36186;DHT22;22228;53.222;7.446;2022-10-16T03:15:07;12.00;99.90
36186;DHT22;22228;53.222;7.446;2022-10-16T03:17:54;12.00;99.90
36186;DHT22;22228;53.222;7.446;2022-10-16T03:20:40;12.10;99.90
36186;DHT22;22228;53.222;7.446;2022-10-16T03:23:28;12.20;99.90
36186;DHT22;22228;53.222;7.446;2022-10-16T03:25:49;12.20;99.90
36186;DHT22;22228;53.222;7.446;2022-10-16T03:28:16;12.20;99.90
36186;DHT22;22228;53.222;7.446;2022-10-16T03:30:37;12.30;99.90
36186;DHT22;22228;53.222;7.446;2022-10-16T03:33:01;12.30;99.90
36186;DHT22;22228;53.222;7.446;2022-10-16T03:35:51;12.30;99.90
36186;DHT22;22228;53.222;7.446;2022-10-16T03:38:14;12.30;99.90
36186;DHT22;22228;53.222;7.446;2022-10-16T03:40:35;12.30;99.90
36186;DHT22;22228;53.222;7.446;2022-10-16T03:42:55;12.30;99.90
36186;DHT22;22228;53.222;7.446;2022-10-16T03:45:17;12.30;99.90
36186;DHT22;22228;53.222;7.446;2022-10-16T03:47:38;12.30;99.90
36186;DHT22;22228;53.222;7.446;2022-10-16T03:50:26;12.30;99.90
36186;DHT22;22228;53.222;7.446;2022-10-16T03:52:46;12.40;99.90
36186;DHT22;22228;53.222;7.446;2022-10-16T03:55:08;12.40;99.90
36186;DHT22;22228;53.222;7.446;2022-10-16T03:57:28;12.40;99.90
36186;DHT22;22228;53.222;7.446;2022-10-16T03:59:54;12.30;99.90
36186;DHT22;22228;53.222;7.446;2022-10-16T04:02:16;12.30;99.90
36186;DHT22;22228;53.222;7.446;2022-10-16T04:04:43;12.40;99.90
36186;DHT22;22228;53.222;7.446;2022-10-16T04:07:08;12.40;99.90
36186;DHT22;22228;53.222;7.446;2022-10-16T04:09:30;12.40;99.90
36186;DHT22;22228;53.222;7.446;2022-10-16T04:11:52;12.50;99.90
36186;DHT22;22228;53.222;7.446;2022-10-16T04:14:38;12.50;99.90
36186;DHT22;22228;53.222;7.446;2022-10-16T04:17:02;12.50;99.90
36186;DHT22;22228;53.222;7.446;2022-10-16T04:19:48;12.40;99.90
36186;DHT22;22228;53.222;7.446;2022-10-16T04:22:15;12.40;99.90
36186;DHT22;22228;53.222;7.446;2022-10-16T04:24:36;12.40;99.90
36186;DHT22;22228;53.222;7.446;2022-10-16T04:26:57;12.50;99.90
36186;DHT22;22228;53.222;7.446;2022-10-16T04:29:24;12.50;99.90
36186;DHT22;22228;53.222;7.446;2022-10-16T04:31:44;12.50;99.90
36186;DHT22;22228;53.222;7.446;2022-10-16T04:34:06;12.40;99.90
36186;DHT22;22228;53.222;7.446;2022-10-16T04:36:53;12.40;99.90
36186;DHT22;22228;53.222;7.446;2022-10-16T04:39:15;12.40;99.90
36186;DHT22;22228;53.222;7.446;2022-10-16T04:41:36;12.30;99.90
36186;DHT22;22228;53.222;7.446;2022-10-16T04:43:57;12.30;99.90
36186;DHT22;22228;53.222;7.446;2022-10-16T04:46:24;12.30;99.90
36186;DHT22;22228;53.222;7.446;2022-10-16T04:48:51;12.30;99.90
36186;DHT22;22228;53.222;7.446;2022-10-16T04:51:41;12.20;99.90
36186;DHT22;22228;53.222;7.446;2022-10-16T04:54:02;12.10;99.90
36186;DHT22;22228;53.222;7.446;2022-10-16T04:56:49;12.00;99.90
36186;DHT22;22228;53.222;7.446;2022-10-16T04:59:19;11.90;99.90
36186;DHT22;22228;53.222;7.446;2022-10-16T05:04:54;11.80;99.90
36186;DHT22;22228;53.222;7.446;2022-10-16T05:07:15;11.80;99.90
36186;DHT22;22228;53.222;7.446;2022-10-16T05:09:37;11.90;99.90
36186;DHT22;22228;53.222;7.446;2022-10-16T05:12:05;11.80;99.90
36186;DHT22;22228;53.222;7.446;2022-10-16T05:14:26;11.90;99.90
36186;DHT22;22228;53.222;7.446;2022-10-16T05:16:46;11.90;99.90
36186;DHT22;22228;53.222;7.446;2022-10-16T05:19:33;11.90;99.90
36186;DHT22;22228;53.222;7.446;2022-10-16T05:21:54;12.00;99.90
36186;DHT22;22228;53.222;7.446;2022-10-16T05:24:15;12.00;99.90
36186;DHT22;22228;53.222;7.446;2022-10-16T05:26:42;12.00;99.90
36186;DHT22;22228;53.222;7.446;2022-10-16T05:29:05;12.00;99.90
36186;DHT22;22228;53.222;7.446;2022-10-16T05:31:25;12.00;99.90
36186;DHT22;22228;53.222;7.446;2022-10-16T05:33:46;12.00;99.90
36186;DHT22;22228;53.222;7.446;2022-10-16T05:36:33;12.00;99.90
36186;DHT22;22228;53.222;7.446;2022-10-16T05:38:55;12.00;99.90
36186;DHT22;22228;53.222;7.446;2022-10-16T05:41:22;11.90;99.90
36186;DHT22;22228;53.222;7.446;2022-10-16T05:44:09;12.00;99.90
36186;DHT22;22228;53.222;7.446;2022-10-16T05:49:42;12.00;99.90
36186;DHT22;22228;53.222;7.446;2022-10-16T05:52:03;12.00;99.90
36186;DHT22;22228;53.222;7.446;2022-10-16T05:54:55;12.00;99.90
36186;DHT22;22228;53.222;7.446;2022-10-16T05:57:19;12.10;99.90
36186;DHT22;22228;53.222;7.446;2022-10-16T06:00:11;12.20;99.90
36186;DHT22;22228;53.222;7.446;2022-10-16T06:02:35;12.20;99.90
36186;DHT22;22228;53.222;7.446;2022-10-16T06:04:58;12.30;99.90
36186;DHT22;22228;53.222;7.446;2022-10-16T06:07:44;12.30;99.90
36186;DHT22;22228;53.222;7.446;2022-10-16T06:10:07;12.30;99.90
36186;DHT22;22228;53.222;7.446;2022-10-16T06:12:29;12.30;99.90
36186;DHT22;22228;53.222;7.446;2022-10-16T06:18:10;12.30;99.90
36186;DHT22;22228;53.222;7.446;2022-10-16T06:20:31;12.40;99.90
36186;DHT22;22228;53.222;7.446;2022-10-16T06:22:52;12.40;99.90
36186;DHT22;22228;53.222;7.446;2022-10-16T06:25:39;12.40;99.90
36186;DHT22;22228;53.222;7.446;2022-10-16T06:31:21;12.50;99.90
36186;DHT22;22228;53.222;7.446;2022-10-16T06:33:43;12.50;99.90
36186;DHT22;22228;53.222;7.446;2022-10-16T06:39:36;12.50;99.90
36186;DHT22;22228;53.222;7.446;2022-10-16T06:42:23;12.60;99.90
36186;DHT22;22228;53.222;7.446;2022-10-16T06:44:50;12.60;99.90
36186;DHT22;22228;53.222;7.446;2022-10-16T06:47:11;12.60;99.90
36186;DHT22;22228;53.222;7.446;2022-10-16T06:50:00;12.70;99.90
36186;DHT22;22228;53.222;7.446;2022-10-16T06:52:23;12.70;99.90
36186;DHT22;22228;53.222;7.446;2022-10-16T06:55:10;12.70;99.90
36186;DHT22;22228;53.222;7.446;2022-10-16T06:57:37;12.70;99.90
36186;DHT22;22228;53.222;7.446;2022-10-16T07:00:24;12.70;99.90
36186;DHT22;22228;53.222;7.446;2022-10-16T07:02:46;12.80;99.90
36186;DHT22;22228;53.222;7.446;2022-10-16T07:05:39;12.80;99.90
36186;DHT22;22228;53.222;7.446;2022-10-16T07:08:26;12.90;99.90
36186;DHT22;22228;53.222;7.446;2022-10-16T07:10:58;12.80;99.90
36186;DHT22;22228;53.222;7.446;2022-10-16T07:16:37;12.70;99.90
36186;DHT22;22228;53.222;7.446;2022-10-16T07:19:00;12.70;99.90
36186;DHT22;22228;53.222;7.446;2022-10-16T07:21:28;12.80;99.90
36186;DHT22;22228;53.222;7.446;2022-10-16T07:23:50;12.90;99.90
36186;DHT22;22228;53.222;7.446;2022-10-16T07:26:11;13.00;99.90
36186;DHT22;22228;53.222;7.446;2022-10-16T07:28:33;13.10;99.90
36186;DHT22;22228;53.222;7.446;2022-10-16T07:31:01;13.20;99.90
36186;DHT22;22228;53.222;7.446;2022-10-16T07:33:22;13.30;99.90
36186;DHT22;22228;53.222;7.446;2022-10-16T07:35:48;13.40;99.90
36186;DHT22;22228;53.222;7.446;2022-10-16T07:38:12;13.50;99.90
36186;DHT22;22228;53.222;7.446;2022-10-16T07:40:33;13.50;99.90
36186;DHT22;22228;53.222;7.446;2022-10-16T07:42:54;13.60;99.90
36186;DHT22;22228;53.222;7.446;2022-10-16T07:45:18;13.60;99.90
36186;DHT22;22228;53.222;7.446;2022-10-16T07:47:39;13.70;99.90
36186;DHT22;22228;53.222;7.446;2022-10-16T07:50:26;13.70;99.90
36186;DHT22;22228;53.222;7.446;2022-10-16T07:53:14;13.70;99.90
36186;DHT22;22228;53.222;7.446;2022-10-16T07:55:36;13.70;99.90
36186;DHT22;22228;53.222;7.446;2022-10-16T07:57:59;13.80;99.90
36186;DHT22;22228;53.222;7.446;2022-10-16T08:00:21;13.80;99.90
36186;DHT22;22228;53.222;7.446;2022-10-16T08:02:48;13.90;99.90
36186;DHT22;22228;53.222;7.446;2022-10-16T08:05:11;13.90;99.90
36186;DHT22;22228;53.222;7.446;2022-10-16T08:07:32;14.00;99.90
36186;DHT22;22228;53.222;7.446;2022-10-16T08:09:54;14.00;99.90
36186;DHT22;22228;53.222;7.446;2022-10-16T08:12:20;14.10;99.90
36186;DHT22;22228;53.222;7.446;2022-10-16T08:14:42;14.20;99.90
36186;DHT22;22228;53.222;7.446;2022-10-16T08:17:09;14.20;99.90
36186;DHT22;22228;53.222;7.446;2022-10-16T08:19:31;14.40;99.90
36186;DHT22;22228;53.222;7.446;2022-10-16T08:21:58;14.40;99.90
36186;DHT22;22228;53.222;7.446;2022-10-16T08:24:19;14.30;99.90
36186;DHT22;22228;53.222;7.446;2022-10-16T08:27:05;14.20;99.90
36186;DHT22;22228;53.222;7.446;2022-10-16T08:29:30;14.10;99.90
36186;DHT22;22228;53.222;7.446;2022-10-16T08:32:15;14.10;99.90
36186;DHT22;22228;53.222;7.446;2022-10-16T08:35:06;14.00;99.90
36186;DHT22;22228;53.222;7.446;2022-10-16T08:37:30;13.90;99.90
36186;DHT22;22228;53.222;7.446;2022-10-16T08:39:54;13.90;99.90
36186;DHT22;22228;53.222;7.446;2022-10-16T08:42:35;13.90;99.90
36186;DHT22;22228;53.222;7.446;2022-10-16T08:50:39;13.80;99.90
36186;DHT22;22228;53.222;7.446;2022-10-16T08:53:06;13.90;99.90
36186;DHT22;22228;53.222;7.446;2022-10-16T08:55:34;14.00;99.90
36186;DHT22;22228;53.222;7.446;2022-10-16T08:57:59;14.20;99.90
36186;DHT22;22228;53.222;7.446;2022-10-16T09:00:48;14.30;99.90
36186;DHT22;22228;53.222;7.446;2022-10-16T09:03:47;14.60;99.90
36186;DHT22;22228;53.222;7.446;2022-10-16T09:06:29;14.70;99.90
36186;DHT22;22228;53.222;7.446;2022-10-16T09:09:42;14.80;99.90
36186;DHT22;22228;53.222;7.446;2022-10-16T09:12:12;14.80;99.90
36186;DHT22;22228;53.222;7.446;2022-10-16T09:15:05;14.70;99.90
36186;DHT22;22228;53.222;7.446;2022-10-16T09:17:39;14.70;99.90
36186;DHT22;22228;53.222;7.446;2022-10-16T09:20:28;14.70;99.90
36186;DHT22;22228;53.222;7.446;2022-10-16T09:23:00;14.80;99.90
36186;DHT22;22228;53.222;7.446;2022-10-16T09:25:56;15.00;99.90
36186;DHT22;22228;53.222;7.446;2022-10-16T09:28:23;15.10;99.90
36186;DHT22;22228;53.222;7.446;2022-10-16T09:30:49;15.20;99.90
36186;DHT22;22228;53.222;7.446;2022-10-16T09:33:13;15.30;99.90
36186;DHT22;22228;53.222;7.446;2022-10-16T09:35:38;15.30;99.90
36186;DHT22;22228;53.222;7.446;2022-10-16T09:38:28;15.20;99.90
36186;DHT22;22228;53.222;7.446;2022-10-16T09:41:21;15.20;99.90
36186;DHT22;22228;53.222;7.446;2022-10-16T09:43:52;15.20;99.90
36186;DHT22;22228;53.222;7.446;2022-10-16T09:46:26;15.30;99.90
36186;DHT22;22228;53.222;7.446;2022-10-16T09:48:56;15.40;99.90
36186;DHT22;22228;53.222;7.446;2022-10-16T09:51:21;15.50;99.90
36186;DHT22;22228;53.222;7.446;2022-10-16T09:53:49;15.50;99.90
36186;DHT22;22228;53.222;7.446;2022-10-16T09:56:25;15.50;99.90
36186;DHT22;22228;53.222;7.446;2022-10-16T09:58:50;15.50;99.90
36186;DHT22;22228;53.222;7.446;2022-10-16T10:01:14;15.50;99.90
36186;DHT22;22228;53.222;7.446;2022-10-16T10:03:38;15.50;99.90
36186;DHT22;22228;53.222;7.446;2022-10-16T10:06:14;15.50;99.90
36186;DHT22;22228;53.222;7.446;2022-10-16T10:08:39;15.60;99.90
36186;DHT22;22228;53.222;7.446;2022-10-16T10:11:05;15.70;99.90
36186;DHT22;22228;53.222;7.446;2022-10-16T10:13:27;15.70;99.90
36186;DHT22;22228;53.222;7.446;2022-10-16T10:16:23;15.80;99.90
36186;DHT22;22228;53.222;7.446;2022-10-16T10:19:19;15.80;99.90
36186;DHT22;22228;53.222;7.446;2022-10-16T10:21:47;15.80;99.90
36186;DHT22;22228;53.222;7.446;2022-10-16T10:24:11;15.90;99.90
36186;DHT22;22228;53.222;7.446;2022-10-16T10:26:44;16.00;99.90
36186;DHT22;22228;53.222;7.446;2022-10-16T10:29:18;16.10;99.90
36186;DHT22;22228;53.222;7.446;2022-10-16T10:31:47;16.30;99.90
36186;DHT22;22228;53.222;7.446;2022-10-16T10:34:25;16.40;99.90
36186;DHT22;22228;53.222;7.446;2022-10-16T10:36:55;16.50;99.90
36186;DHT22;22228;53.222;7.446;2022-10-16T10:39:24;16.50;99.90
36186;DHT22;22228;53.222;7.446;2022-10-16T10:42:21;16.50;99.90
36186;DHT22;22228;53.222;7.446;2022-10-16T10:47:48;16.50;99.90
36186;DHT22;22228;53.222;7.446;2022-10-16T10:50:41;16.50;99.90
36186;DHT22;22228;53.222;7.446;2022-10-16T10:53:11;16.40;99.90
36186;DHT22;22228;53.222;7.446;2022-10-16T10:55:44;16.40;99.90
36186;DHT22;22228;53.222;7.446;2022-10-16T11:01:10;16.20;99.90
36186;DHT22;22228;53.222;7.446;2022-10-16T11:04:18;16.20;99.90
36186;DHT22;22228;53.222;7.446;2022-10-16T11:06:48;16.20;99.90
36186;DHT22;22228;53.222;7.446;2022-10-16T11:09:17;16.30;99.90
36186;DHT22;22228;53.222;7.446;2022-10-16T11:11:43;16.50;99.90
36186;DHT22;22228;53.222;7.446;2022-10-16T11:14:14;16.50;99.90
36186;DHT22;22228;53.222;7.446;2022-10-16T11:16:40;16.60;99.90
36186;DHT22;22228;53.222;7.446;2022-10-16T11:19:11;16.60;99.90
36186;DHT22;22228;53.222;7.446;2022-10-16T11:21:43;16.70;99.90
36186;DHT22;22228;53.222;7.446;2022-10-16T11:24:15;16.80;99.90
36186;DHT22;22228;53.222;7.446;2022-10-16T11:26:41;16.90;99.90
36186;DHT22;22228;53.222;7.446;2022-10-16T11:29:14;17.00;99.90
36186;DHT22;22228;53.222;7.446;2022-10-16T11:31:38;17.00;99.90
36186;DHT22;22228;53.222;7.446;2022-10-16T11:34:06;17.00;99.90
36186;DHT22;22228;53.222;7.446;2022-10-16T11:36:36;17.10;99.90
36186;DHT22;22228;53.222;7.446;2022-10-16T11:39:03;17.10;99.90
36186;DHT22;22228;53.222;7.446;2022-10-16T11:41:29;17.10;99.90
36186;DHT22;22228;53.222;7.446;2022-10-16T11:44:18;17.00;99.90
36186;DHT22;22228;53.222;7.446;2022-10-16T11:46:53;17.00;99.90
36186;DHT22;22228;53.222;7.446;2022-10-16T11:49:46;17.00;99.90
36186;DHT22;22228;53.222;7.446;2022-10-16T11:52:15;17.00;99.90
36186;DHT22;22228;53.222;7.446;2022-10-16T11:54:45;16.90;99.90
36186;DHT22;22228;53.222;7.446;2022-10-16T11:59:48;16.80;99.90
36186;DHT22;22228;53.222;7.446;2022-10-16T12:02:30;16.80;99.90
36186;DHT22;22228;53.222;7.446;2022-10-16T12:04:59;16.80;99.90
36186;DHT22;22228;53.222;7.446;2022-10-16T12:07:26;16.80;99.90
36186;DHT22;22228;53.222;7.446;2022-10-16T12:09:47;16.60;99.90
36186;DHT22;22228;53.222;7.446;2022-10-16T12:12:24;16.70;99.90
36186;DHT22;22228;53.222;7.446;2022-10-16T12:14:46;16.70;99.90
36186;DHT22;22228;53.222;7.446;2022-10-16T12:17:24;16.80;99.90
36186;DHT22;22228;53.222;7.446;2022-10-16T12:19:57;16.90;99.90
36186;DHT22;22228;53.222;7.446;2022-10-16T12:22:18;17.00;99.90
36186;DHT22;22228;53.222;7.446;2022-10-16T12:24:41;17.00;99.90
36186;DHT22;22228;53.222;7.446;2022-10-16T12:27:04;16.90;99.90
36186;DHT22;22228;53.222;7.446;2022-10-16T12:29:32;16.80;99.90
36186;DHT22;22228;53.222;7.446;2022-10-16T12:31:54;16.80;99.90
36186;DHT22;22228;53.222;7.446;2022-10-16T12:34:23;16.80;99.90
36186;DHT22;22228;53.222;7.446;2022-10-16T12:36:48;16.80;99.90
36186;DHT22;22228;53.222;7.446;2022-10-16T12:39:20;16.80;99.90
36186;DHT22;22228;53.222;7.446;2022-10-16T12:42:00;16.80;99.90
36186;DHT22;22228;53.222;7.446;2022-10-16T12:44:23;16.90;99.90
36186;DHT22;22228;53.222;7.446;2022-10-16T12:46:45;16.80;99.90
36186;DHT22;22228;53.222;7.446;2022-10-16T12:49:28;16.80;99.90
36186;DHT22;22228;53.222;7.446;2022-10-16T12:51:49;16.90;99.90
36186;DHT22;22228;53.222;7.446;2022-10-16T12:54:13;16.90;99.90
36186;DHT22;22228;53.222;7.446;2022-10-16T12:56:43;16.90;99.90
36186;DHT22;22228;53.222;7.446;2022-10-16T12:59:14;16.90;99.90
36186;DHT22;22228;53.222;7.446;2022-10-16T13:01:53;17.00;99.90
36186;DHT22;22228;53.222;7.446;2022-10-16T13:04:29;17.10;99.90
36186;DHT22;22228;53.222;7.446;2022-10-16T13:06:59;17.10;99.90
36186;DHT22;22228;53.222;7.446;2022-10-16T13:09:32;17.20;99.90
36186;DHT22;22228;53.222;7.446;2022-10-16T13:12:07;17.30;99.90
36186;DHT22;22228;53.222;7.446;2022-10-16T13:14:49;17.30;99.90
36186;DHT22;22228;53.222;7.446;2022-10-16T13:17:19;17.40;99.90
36186;DHT22;22228;53.222;7.446;2022-10-16T13:19:47;17.40;99.90
36186;DHT22;22228;53.222;7.446;2022-10-16T13:22:18;17.50;99.90
36186;DHT22;22228;53.222;7.446;2022-10-16T13:24:56;17.60;99.90
36186;DHT22;22228;53.222;7.446;2022-10-16T13:27:28;17.60;99.90
36186;DHT22;22228;53.222;7.446;2022-10-16T13:29:53;17.70;99.90
36186;DHT22;22228;53.222;7.446;2022-10-16T13:32:15;17.60;99.90
36186;DHT22;22228;53.222;7.446;2022-10-16T13:34:45;17.60;99.90
36186;DHT22;22228;53.222;7.446;2022-10-16T13:37:20;17.50;99.90
36186;DHT22;22228;53.222;7.446;2022-10-16T13:39:44;17.50;99.90
36186;DHT22;22228;53.222;7.446;2022-10-16T13:42:10;17.70;99.90
36186;DHT22;22228;53.222;7.446;2022-10-16T13:44:39;17.80;99.90
36186;DHT22;22228;53.222;7.446;2022-10-16T13:47:01;17.80;99.90
36186;DHT22;22228;53.222;7.446;2022-10-16T13:49:21;17.80;99.90
36186;DHT22;22228;53.222;7.446;2022-10-16T13:51:54;17.70;99.90
36186;DHT22;22228;53.222;7.446;2022-10-16T13:54:14;17.60;99.90
36186;DHT22;22228;53.222;7.446;2022-10-16T13:56:39;17.50;99.90
36186;DHT22;22228;53.222;7.446;2022-10-16T13:59:02;17.50;99.90
36186;DHT22;22228;53.222;7.446;2022-10-16T14:01:26;17.40;99.90
36186;DHT22;22228;53.222;7.446;2022-10-16T14:03:48;17.40;99.90
36186;DHT22;22228;53.222;7.446;2022-10-16T14:06:13;17.40;99.90
36186;DHT22;22228;53.222;7.446;2022-10-16T14:08:37;17.30;99.90
36186;DHT22;22228;53.222;7.446;2022-10-16T14:11:02;17.30;99.90
36186;DHT22;22228;53.222;7.446;2022-10-16T14:13:29;17.20;99.90
36186;DHT22;22228;53.222;7.446;2022-10-16T14:15:51;17.20;99.90
36186;DHT22;22228;53.222;7.446;2022-10-16T14:18:19;17.20;99.90
36186;DHT22;22228;53.222;7.446;2022-10-16T14:20:40;17.10;99.90
36186;DHT22;22228;53.222;7.446;2022-10-16T14:23:03;17.10;99.90
36186;DHT22;22228;53.222;7.446;2022-10-16T14:25:26;17.10;99.90
36186;DHT22;22228;53.222;7.446;2022-10-16T14:27:57;17.10;99.90
36186;DHT22;22228;53.222;7.446;2022-10-16T14:30:21;17.00;99.90
36186;DHT22;22228;53.222;7.446;2022-10-16T14:32:52;17.00;99.90
36186;DHT22;22228;53.222;7.446;2022-10-16T14:35:23;16.90;99.90
36186;DHT22;22228;53.222;7.446;2022-10-16T14:37:44;17.00;99.90
36186;DHT22;22228;53.222;7.446;2022-10-16T14:40:11;16.90;99.90
36186;DHT22;22228;53.222;7.446;2022-10-16T14:42:35;16.90;99.90
36186;DHT22;22228;53.222;7.446;2022-10-16T14:44:56;16.80;99.90
36186;DHT22;22228;53.222;7.446;2022-10-16T14:47:18;16.70;99.90
36186;DHT22;22228;53.222;7.446;2022-10-16T14:49:41;16.60;99.90
36186;DHT22;22228;53.222;7.446;2022-10-16T14:52:04;16.50;99.90
36186;DHT22;22228;53.222;7.446;2022-10-16T14:54:25;16.50;99.90
36186;DHT22;22228;53.222;7.446;2022-10-16T14:56:49;16.40;99.90
36186;DHT22;22228;53.222;7.446;2022-10-16T14:59:16;16.40;99.90
36186;DHT22;22228;53.222;7.446;2022-10-16T15:01:38;16.30;99.90
36186;DHT22;22228;53.222;7.446;2022-10-16T15:03:58;16.30;99.90
36186;DHT22;22228;53.222;7.446;2022-10-16T15:06:19;16.20;99.90
36186;DHT22;22228;53.222;7.446;2022-10-16T15:08:39;16.10;99.90
36186;DHT22;22228;53.222;7.446;2022-10-16T15:11:00;16.00;99.90
36186;DHT22;22228;53.222;7.446;2022-10-16T15:13:21;15.90;99.90
36186;DHT22;22228;53.222;7.446;2022-10-16T15:15:44;15.90;99.90
36186;DHT22;22228;53.222;7.446;2022-10-16T15:18:04;15.90;99.90
36186;DHT22;22228;53.222;7.446;2022-10-16T15:20:26;15.90;99.90
36186;DHT22;22228;53.222;7.446;2022-10-16T15:22:46;15.90;99.90
36186;DHT22;22228;53.222;7.446;2022-10-16T15:25:10;15.90;99.90
36186;DHT22;22228;53.222;7.446;2022-10-16T15:27:37;15.80;99.90
36186;DHT22;22228;53.222;7.446;2022-10-16T15:29:59;15.70;99.90
36186;DHT22;22228;53.222;7.446;2022-10-16T15:32:20;15.70;99.90
36186;DHT22;22228;53.222;7.446;2022-10-16T15:34:41;15.60;99.90
36186;DHT22;22228;53.222;7.446;2022-10-16T15:37:03;15.50;99.90
36186;DHT22;22228;53.222;7.446;2022-10-16T15:39:23;15.40;99.90
36186;DHT22;22228;53.222;7.446;2022-10-16T15:41:44;15.40;99.90
36186;DHT22;22228;53.222;7.446;2022-10-16T15:44:09;15.40;99.90
36186;DHT22;22228;53.222;7.446;2022-10-16T15:46:30;15.40;99.90
36186;DHT22;22228;53.222;7.446;2022-10-16T15:48:56;15.30;99.90
36186;DHT22;22228;53.222;7.446;2022-10-16T15:51:18;15.20;99.90
36186;DHT22;22228;53.222;7.446;2022-10-16T15:53:39;15.20;99.90
36186;DHT22;22228;53.222;7.446;2022-10-16T15:56:01;15.10;99.90
36186;DHT22;22228;53.222;7.446;2022-10-16T15:58:21;15.00;99.90
36186;DHT22;22228;53.222;7.446;2022-10-16T16:00:42;14.90;99.90
36186;DHT22;22228;53.222;7.446;2022-10-16T16:03:02;14.80;99.90
36186;DHT22;22228;53.222;7.446;2022-10-16T16:05:24;14.70;99.90
36186;DHT22;22228;53.222;7.446;2022-10-16T16:07:46;14.60;99.90
36186;DHT22;22228;53.222;7.446;2022-10-16T16:10:09;14.50;99.90
36186;DHT22;22228;53.222;7.446;2022-10-16T16:12:30;14.30;99.90
36186;DHT22;22228;53.222;7.446;2022-10-16T16:14:50;14.20;99.90
36186;DHT22;22228;53.222;7.446;2022-10-16T16:17:11;14.00;99.90
36186;DHT22;22228;53.222;7.446;2022-10-16T16:19:32;13.90;99.90
36186;DHT22;22228;53.222;7.446;2022-10-16T16:21:54;13.70;99.90